METAR Data
IDs: Format: Raw Decoded Include TAF

Data at: 1827 UTC 25 Mar 2019

KILE 251756Z AUTO 04013KT 10SM CLR 24/10 A3018 RMK AO2 SLP230 T02390100 10239 20172 51006
KILE 251656Z AUTO 02010KT 10SM CLR 23/13 A3018 RMK AO2 SLP229 T02280133
KILE 251556Z AUTO 03008KT 10SM CLR 21/13 A3018 RMK AO2 SLP229 T02110133
KILE 251530Z AUTO 02009KT 10SM FEW018 20/13 A3018 RMK AO2
KILE 251456Z AUTO 03011KT 10SM OVC018 18/13 A3017 RMK AO2 SLP227 T01830133 51032
KILE 251356Z AUTO 35008KT 10SM SCT018 18/14 A3014 RMK AO2 SLP218 T01780144
KILE 251333Z AUTO 36009KT 10SM FEW028 BKN049 17/14 A3013 RMK AO2
KILE 251256Z AUTO 35008KT 10SM BKN019 OVC026 18/16 A3011 RMK AO2 SLP205 T01780156
KILE 251156Z AUTO 28004KT 10SM OVC019 20/18 A3007 RMK AO2 SLP189 T02000178 10200 20189 53011
KILE 251129Z AUTO 00000KT 10SM OVC017 19/18 A3006 RMK AO2
KILE 251112Z AUTO 00000KT 10SM OVC013 19/18 A3005 RMK AO2
KILE 251056Z AUTO 00000KT 10SM OVC015 19/18 A3005 RMK AO2 SLP182 T01940178
KILE 251043Z AUTO 00000KT 10SM OVC015 19/18 A3005 RMK AO2
KILE 250956Z AUTO 23006KT 10SM OVC012 20/18 A3004 RMK AO2 SLP178 T02000178
KILE 250917Z AUTO 29003KT 10SM BKN012 19/18 A3004 RMK AO2
KILE 250856Z AUTO 24004KT 10SM CLR 19/18 A3003 RMK AO2 SLP177 T01890178 55001
KILE 250843Z AUTO 23003KT 10SM FEW013 19/18 A3004 RMK AO2
KILE 250756Z AUTO 19007KT 10SM BKN013 19/18 A3003 RMK AO2 SLP176 T01890178
KILE 250656Z AUTO 17005KT 10SM CLR 19/18 A3003 RMK AO2 SLP180 T01890178
KILE 250556Z AUTO 18009KT 10SM CLR 19/18 A3004 RMK AO2 SLP181 T01940178 10261 20194 402830178 51006
KILE 250456Z AUTO 17008KT 10SM CLR 20/17 A3004 RMK AO2 SLP180 T02000172
KILE 250356Z AUTO 16007KT 10SM CLR 21/17 A3003 RMK AO2 SLP179 T02060167
KILE 250256Z AUTO 18006KT 10SM CLR 21/17 A3002 RMK AO2 SLP175 T02060167 53014
KILE 250156Z AUTO 17005KT 10SM CLR 22/17 A3000 RMK AO2 SLP167 T02170167
KILE 250056Z AUTO 16006KT 10SM CLR 23/17 A2999 RMK AO2 SLP164 T02330167
KILE 242356Z AUTO 18011KT 10SM CLR 26/16 A2997 RMK AO2 SLP158 T02610161 10283 20222 56010
KILE 242256Z AUTO 18010KT 10SM CLR 27/17 A2998 RMK AO2 SLP158 T02720167
KILE 242156Z AUTO 18012KT 10SM SCT042 28/17 A2999 RMK AO2 SLP163 T02780167
KILE 242056Z AUTO 20008KT 10SM SCT039 27/17 A3001 RMK AO2 SLP168 T02720167 58024
KILE 241956Z AUTO 22008KT 10SM BKN032 26/17 A3003 RMK AO2 SLP178 T02610172
KILE 241937Z AUTO 21011G17KT 10SM BKN030 25/17 A3004 RMK AO2
KILE 241856Z AUTO 21011KT 10SM OVC026 23/17 A3006 RMK AO2 SLP188 T02330167
KILE 241756Z AUTO 22011KT 10SM OVC022 22/17 A3008 RMK AO2 SLP195 T02220167 10228 20178 58006
KILE 241656Z AUTO 20012KT 10SM OVC018 22/17 A3009 RMK AO2 SLP200 T02170167
KILE 241556Z AUTO 20012G17KT 10SM OVC018 21/17 A3009 RMK AO2 SLP200 T02110167
KILE 241456Z AUTO 20009KT 10SM BKN017 BKN023 OVC028 20/17 A3009 RMK AO2 SLP203 T02000172 53013
KILE 241356Z AUTO 17008KT 10SM FEW013 OVC027 19/17 A3008 RMK AO2 SLP198 T01890172
KILE 241256Z AUTO 17006KT 10SM OVC020 18/17 A3007 RMK AO2 SLP193 T01780167
KILE 241156Z AUTO 16007KT 10SM FEW013 OVC020 18/17 A3006 RMK AO2 SLP190 T01780167 10189 20178 53003 TSNO
KILE 241154Z AUTO 16006KT 10SM FEW013 OVC020 18/17 A3006 RMK AO2
KILE 241056Z AUTO 16007KT 10SM BKN013 OVC028 18/17 A3005 RMK AO2 SLP186 T01780167
KILE 240956Z AUTO 16005KT 10SM FEW013 OVC026 18/16 A3005 RMK AO2 SLP186 T01780161
KILE 240856Z AUTO 16006KT 10SM BKN015 OVC020 18/16 A3005 RMK AO2 SLP187 T01780161 57002
KILE 240832Z AUTO 17006KT 10SM BKN015 BKN024 OVC036 18/16 A3005 RMK AO2
KILE 240756Z AUTO 17007KT 10SM FEW015 OVC034 18/16 A3005 RMK AO2 SLP188 T01830161
KILE 240750Z AUTO 17009KT 10SM SCT015 OVC034 18/16 A3005 RMK AO2
KILE 240656Z AUTO 18011KT 10SM BKN019 OVC028 19/16 A3006 RMK AO2 SLP190 T01890161